sensor_id;sensor_type;location;lat;lon;timestamp;P1;durP1;ratioP1;P2;durP2;ratioP2
73359;SDS011;63092;43.582;19.528;2024-03-25T00:02:10;19.88;;;10.90;;
73359;SDS011;63092;43.582;19.528;2024-03-25T00:04:35;18.00;;;9.63;;
73359;SDS011;63092;43.582;19.528;2024-03-25T00:07:01;20.65;;;11.15;;
73359;SDS011;63092;43.582;19.528;2024-03-25T00:09:27;18.83;;;10.45;;
73359;SDS011;63092;43.582;19.528;2024-03-25T00:11:53;19.50;;;10.73;;
73359;SDS011;63092;43.582;19.528;2024-03-25T00:14:22;22.15;;;11.93;;
73359;SDS011;63092;43.582;19.528;2024-03-25T00:16:48;25.92;;;13.10;;
73359;SDS011;63092;43.582;19.528;2024-03-25T00:19:14;23.15;;;12.27;;
73359;SDS011;63092;43.582;19.528;2024-03-25T00:21:40;29.13;;;18.70;;
73359;SDS011;63092;43.582;19.528;2024-03-25T00:24:07;25.48;;;12.93;;
73359;SDS011;63092;43.582;19.528;2024-03-25T00:26:33;25.27;;;13.38;;
73359;SDS011;63092;43.582;19.528;2024-03-25T00:28:59;25.45;;;13.43;;
73359;SDS011;63092;43.582;19.528;2024-03-25T00:31:24;23.92;;;12.07;;
73359;SDS011;63092;43.582;19.528;2024-03-25T00:33:50;17.85;;;9.88;;
73359;SDS011;63092;43.582;19.528;2024-03-25T00:36:16;21.65;;;11.68;;
73359;SDS011;63092;43.582;19.528;2024-03-25T00:38:42;20.27;;;11.15;;
73359;SDS011;63092;43.582;19.528;2024-03-25T00:41:08;26.42;;;13.02;;
73359;SDS011;63092;43.582;19.528;2024-03-25T00:43:34;23.35;;;11.93;;
73359;SDS011;63092;43.582;19.528;2024-03-25T00:46:00;27.95;;;13.32;;
73359;SDS011;63092;43.582;19.528;2024-03-25T00:48:26;25.33;;;13.43;;
73359;SDS011;63092;43.582;19.528;2024-03-25T00:50:52;26.10;;;12.75;;
73359;SDS011;63092;43.582;19.528;2024-03-25T00:53:17;29.40;;;16.10;;
73359;SDS011;63092;43.582;19.528;2024-03-25T00:55:43;26.35;;;14.63;;
73359;SDS011;63092;43.582;19.528;2024-03-25T00:58:10;29.27;;;13.85;;
73359;SDS011;63092;43.582;19.528;2024-03-25T01:00:36;25.52;;;13.25;;
73359;SDS011;63092;43.582;19.528;2024-03-25T01:03:03;23.52;;;11.68;;
73359;SDS011;63092;43.582;19.528;2024-03-25T01:05:29;21.63;;;11.10;;
73359;SDS011;63092;43.582;19.528;2024-03-25T01:07:55;21.75;;;11.63;;
73359;SDS011;63092;43.582;19.528;2024-03-25T01:10:20;19.00;;;10.48;;
73359;SDS011;63092;43.582;19.528;2024-03-25T01:12:46;21.45;;;10.95;;
73359;SDS011;63092;43.582;19.528;2024-03-25T01:15:12;18.52;;;10.02;;
73359;SDS011;63092;43.582;19.528;2024-03-25T01:17:37;19.50;;;10.73;;
73359;SDS011;63092;43.582;19.528;2024-03-25T01:20:03;18.02;;;10.18;;
73359;SDS011;63092;43.582;19.528;2024-03-25T01:22:29;16.60;;;9.07;;
73359;SDS011;63092;43.582;19.528;2024-03-25T01:24:56;16.42;;;8.32;;
73359;SDS011;63092;43.582;19.528;2024-03-25T01:27:22;17.48;;;8.93;;
73359;SDS011;63092;43.582;19.528;2024-03-25T01:29:48;16.90;;;9.65;;
73359;SDS011;63092;43.582;19.528;2024-03-25T01:32:14;16.60;;;9.63;;
73359;SDS011;63092;43.582;19.528;2024-03-25T01:34:39;14.95;;;8.57;;
73359;SDS011;63092;43.582;19.528;2024-03-25T01:37:05;16.17;;;8.50;;
73359;SDS011;63092;43.582;19.528;2024-03-25T01:39:31;14.05;;;7.93;;
73359;SDS011;63092;43.582;19.528;2024-03-25T01:41:56;19.60;;;10.13;;
73359;SDS011;63092;43.582;19.528;2024-03-25T01:44:22;18.20;;;9.35;;
73359;SDS011;63092;43.582;19.528;2024-03-25T01:46:49;17.33;;;8.77;;
73359;SDS011;63092;43.582;19.528;2024-03-25T01:49:17;17.30;;;9.25;;
73359;SDS011;63092;43.582;19.528;2024-03-25T01:51:44;15.50;;;8.80;;
73359;SDS011;63092;43.582;19.528;2024-03-25T01:54:09;16.20;;;8.40;;
73359;SDS011;63092;43.582;19.528;2024-03-25T01:56:38;14.55;;;7.82;;
73359;SDS011;63092;43.582;19.528;2024-03-25T01:59:06;14.18;;;8.18;;
73359;SDS011;63092;43.582;19.528;2024-03-25T02:01:31;13.52;;;7.38;;
73359;SDS011;63092;43.582;19.528;2024-03-25T02:03:57;14.20;;;8.25;;
73359;SDS011;63092;43.582;19.528;2024-03-25T02:06:24;19.27;;;9.70;;
73359;SDS011;63092;43.582;19.528;2024-03-25T02:08:52;16.00;;;9.02;;
73359;SDS011;63092;43.582;19.528;2024-03-25T02:11:19;29.15;;;16.55;;
73359;SDS011;63092;43.582;19.528;2024-03-25T02:13:46;17.92;;;10.10;;
73359;SDS011;63092;43.582;19.528;2024-03-25T02:16:12;19.88;;;10.85;;
73359;SDS011;63092;43.582;19.528;2024-03-25T02:18:37;20.45;;;10.43;;
73359;SDS011;63092;43.582;19.528;2024-03-25T02:21:03;19.02;;;9.88;;
73359;SDS011;63092;43.582;19.528;2024-03-25T02:23:30;19.27;;;9.93;;
73359;SDS011;63092;43.582;19.528;2024-03-25T02:25:57;15.55;;;8.45;;
73359;SDS011;63092;43.582;19.528;2024-03-25T02:28:22;15.63;;;8.13;;
73359;SDS011;63092;43.582;19.528;2024-03-25T02:30:48;13.27;;;7.68;;
73359;SDS011;63092;43.582;19.528;2024-03-25T02:33:14;15.60;;;8.23;;
73359;SDS011;63092;43.582;19.528;2024-03-25T02:35:40;18.85;;;7.80;;
73359;SDS011;63092;43.582;19.528;2024-03-25T02:38:06;20.73;;;8.80;;
73359;SDS011;63092;43.582;19.528;2024-03-25T02:40:34;31.13;;;12.30;;
73359;SDS011;63092;43.582;19.528;2024-03-25T02:43:00;28.63;;;12.82;;
73359;SDS011;63092;43.582;19.528;2024-03-25T02:45:27;24.95;;;11.43;;
73359;SDS011;63092;43.582;19.528;2024-03-25T02:47:52;17.33;;;9.15;;
73359;SDS011;63092;43.582;19.528;2024-03-25T02:50:19;16.48;;;8.43;;
73359;SDS011;63092;43.582;19.528;2024-03-25T02:52:44;15.05;;;7.50;;
73359;SDS011;63092;43.582;19.528;2024-03-25T02:55:10;15.73;;;7.75;;
73359;SDS011;63092;43.582;19.528;2024-03-25T02:57:36;14.75;;;7.63;;
73359;SDS011;63092;43.582;19.528;2024-03-25T03:00:02;15.45;;;8.30;;
73359;SDS011;63092;43.582;19.528;2024-03-25T03:02:28;13.88;;;8.07;;
73359;SDS011;63092;43.582;19.528;2024-03-25T03:04:54;13.43;;;7.90;;
73359;SDS011;63092;43.582;19.528;2024-03-25T03:07:19;13.60;;;7.80;;
73359;SDS011;63092;43.582;19.528;2024-03-25T03:09:45;18.63;;;8.82;;
73359;SDS011;63092;43.582;19.528;2024-03-25T03:12:11;13.88;;;7.80;;
73359;SDS011;63092;43.582;19.528;2024-03-25T03:14:37;16.10;;;8.63;;
73359;SDS011;63092;43.582;19.528;2024-03-25T03:17:03;14.70;;;7.43;;
73359;SDS011;63092;43.582;19.528;2024-03-25T03:19:30;15.05;;;8.50;;
73359;SDS011;63092;43.582;19.528;2024-03-25T03:21:56;17.08;;;9.80;;
73359;SDS011;63092;43.582;19.528;2024-03-25T03:24:22;15.23;;;8.52;;
73359;SDS011;63092;43.582;19.528;2024-03-25T03:26:48;16.55;;;8.02;;
73359;SDS011;63092;43.582;19.528;2024-03-25T03:29:14;12.75;;;7.00;;
73359;SDS011;63092;43.582;19.528;2024-03-25T03:31:40;13.80;;;7.68;;
73359;SDS011;63092;43.582;19.528;2024-03-25T03:34:05;13.82;;;7.28;;
73359;SDS011;63092;43.582;19.528;2024-03-25T03:36:31;14.48;;;8.25;;
73359;SDS011;63092;43.582;19.528;2024-03-25T03:38:57;15.90;;;8.18;;
73359;SDS011;63092;43.582;19.528;2024-03-25T03:41:23;12.95;;;6.95;;
73359;SDS011;63092;43.582;19.528;2024-03-25T03:43:48;17.20;;;8.93;;
73359;SDS011;63092;43.582;19.528;2024-03-25T03:46:14;18.45;;;8.60;;
73359;SDS011;63092;43.582;19.528;2024-03-25T03:48:40;14.18;;;7.30;;
73359;SDS011;63092;43.582;19.528;2024-03-25T03:51:06;18.42;;;8.85;;
73359;SDS011;63092;43.582;19.528;2024-03-25T03:53:32;17.77;;;9.30;;
73359;SDS011;63092;43.582;19.528;2024-03-25T03:56:02;14.73;;;7.78;;
73359;SDS011;63092;43.582;19.528;2024-03-25T03:58:31;14.48;;;7.65;;
73359;SDS011;63092;43.582;19.528;2024-03-25T04:00:57;18.65;;;7.47;;
73359;SDS011;63092;43.582;19.528;2024-03-25T04:03:23;14.63;;;7.60;;
73359;SDS011;63092;43.582;19.528;2024-03-25T04:05:49;14.27;;;7.38;;
73359;SDS011;63092;43.582;19.528;2024-03-25T04:08:15;13.50;;;7.30;;
73359;SDS011;63092;43.582;19.528;2024-03-25T04:10:43;14.30;;;7.75;;
73359;SDS011;63092;43.582;19.528;2024-03-25T04:13:10;13.25;;;7.80;;
73359;SDS011;63092;43.582;19.528;2024-03-25T04:15:40;14.52;;;6.75;;
73359;SDS011;63092;43.582;19.528;2024-03-25T04:18:07;14.25;;;7.30;;
73359;SDS011;63092;43.582;19.528;2024-03-25T04:20:37;11.95;;;6.68;;
73359;SDS011;63092;43.582;19.528;2024-03-25T04:23:03;14.88;;;7.00;;
73359;SDS011;63092;43.582;19.528;2024-03-25T04:25:32;16.30;;;7.97;;
73359;SDS011;63092;43.582;19.528;2024-03-25T04:27:58;15.32;;;7.65;;
73359;SDS011;63092;43.582;19.528;2024-03-25T04:30:25;11.23;;;5.88;;
73359;SDS011;63092;43.582;19.528;2024-03-25T04:32:51;11.18;;;5.70;;
73359;SDS011;63092;43.582;19.528;2024-03-25T04:35:16;12.57;;;6.10;;
73359;SDS011;63092;43.582;19.528;2024-03-25T04:37:44;12.35;;;6.57;;
73359;SDS011;63092;43.582;19.528;2024-03-25T04:40:10;10.88;;;5.88;;
73359;SDS011;63092;43.582;19.528;2024-03-25T04:42:40;10.93;;;5.45;;
73359;SDS011;63092;43.582;19.528;2024-03-25T04:45:06;13.18;;;6.60;;
73359;SDS011;63092;43.582;19.528;2024-03-25T04:47:32;12.57;;;6.20;;
73359;SDS011;63092;43.582;19.528;2024-03-25T04:49:57;10.90;;;6.57;;
73359;SDS011;63092;43.582;19.528;2024-03-25T04:52:23;13.60;;;6.93;;
73359;SDS011;63092;43.582;19.528;2024-03-25T04:54:50;14.23;;;7.50;;
73359;SDS011;63092;43.582;19.528;2024-03-25T04:57:16;15.43;;;6.97;;
73359;SDS011;63092;43.582;19.528;2024-03-25T04:59:42;16.33;;;7.88;;
73359;SDS011;63092;43.582;19.528;2024-03-25T05:02:08;11.65;;;6.82;;
73359;SDS011;63092;43.582;19.528;2024-03-25T05:04:33;14.02;;;7.32;;
73359;SDS011;63092;43.582;19.528;2024-03-25T05:07:00;11.73;;;6.45;;
73359;SDS011;63092;43.582;19.528;2024-03-25T05:09:26;12.73;;;6.60;;
73359;SDS011;63092;43.582;19.528;2024-03-25T05:11:52;11.55;;;6.03;;
73359;SDS011;63092;43.582;19.528;2024-03-25T05:14:17;14.95;;;6.93;;
73359;SDS011;63092;43.582;19.528;2024-03-25T05:16:43;15.32;;;7.10;;
73359;SDS011;63092;43.582;19.528;2024-03-25T05:19:09;17.73;;;8.18;;
73359;SDS011;63092;43.582;19.528;2024-03-25T05:21:34;18.52;;;8.80;;
73359;SDS011;63092;43.582;19.528;2024-03-25T05:24:00;18.98;;;8.95;;
73359;SDS011;63092;43.582;19.528;2024-03-25T05:26:32;20.55;;;9.40;;
73359;SDS011;63092;43.582;19.528;2024-03-25T05:29:00;20.10;;;10.10;;
73359;SDS011;63092;43.582;19.528;2024-03-25T05:31:26;23.05;;;14.10;;
73359;SDS011;63092;43.582;19.528;2024-03-25T05:33:52;18.92;;;10.57;;
73359;SDS011;63092;43.582;19.528;2024-03-25T05:36:18;22.52;;;12.38;;
73359;SDS011;63092;43.582;19.528;2024-03-25T05:38:44;20.58;;;11.10;;
73359;SDS011;63092;43.582;19.528;2024-03-25T05:41:10;18.45;;;9.32;;
73359;SDS011;63092;43.582;19.528;2024-03-25T05:43:36;22.52;;;12.77;;
73359;SDS011;63092;43.582;19.528;2024-03-25T05:46:02;27.20;;;14.63;;
73359;SDS011;63092;43.582;19.528;2024-03-25T05:48:28;26.52;;;13.63;;
73359;SDS011;63092;43.582;19.528;2024-03-25T05:53:24;16.83;;;8.07;;
73359;SDS011;63092;43.582;19.528;2024-03-25T05:55:50;16.17;;;9.25;;
73359;SDS011;63092;43.582;19.528;2024-03-25T05:58:16;16.45;;;8.40;;
73359;SDS011;63092;43.582;19.528;2024-03-25T06:00:42;20.02;;;10.25;;
73359;SDS011;63092;43.582;19.528;2024-03-25T06:03:08;21.25;;;10.30;;
73359;SDS011;63092;43.582;19.528;2024-03-25T06:05:33;16.50;;;8.48;;
73359;SDS011;63092;43.582;19.528;2024-03-25T06:07:59;18.85;;;9.40;;
73359;SDS011;63092;43.582;19.528;2024-03-25T06:10:25;16.42;;;8.48;;
73359;SDS011;63092;43.582;19.528;2024-03-25T06:12:50;17.80;;;8.23;;
73359;SDS011;63092;43.582;19.528;2024-03-25T06:15:16;16.10;;;9.20;;
73359;SDS011;63092;43.582;19.528;2024-03-25T06:17:42;17.73;;;10.60;;
73359;SDS011;63092;43.582;19.528;2024-03-25T06:20:08;17.13;;;9.43;;
73359;SDS011;63092;43.582;19.528;2024-03-25T06:22:34;14.30;;;8.43;;
73359;SDS011;63092;43.582;19.528;2024-03-25T06:25:00;15.90;;;9.13;;
73359;SDS011;63092;43.582;19.528;2024-03-25T06:27:26;18.08;;;9.43;;
73359;SDS011;63092;43.582;19.528;2024-03-25T06:29:51;18.92;;;10.85;;
73359;SDS011;63092;43.582;19.528;2024-03-25T06:32:37;28.45;;;10.15;;
73359;SDS011;63092;43.582;19.528;2024-03-25T06:35:21;22.60;;;12.40;;
73359;SDS011;63092;43.582;19.528;2024-03-25T06:37:47;18.05;;;10.02;;
73359;SDS011;63092;43.582;19.528;2024-03-25T06:40:12;21.70;;;11.20;;
73359;SDS011;63092;43.582;19.528;2024-03-25T06:42:38;19.77;;;10.20;;
73359;SDS011;63092;43.582;19.528;2024-03-25T06:45:04;18.95;;;9.70;;
73359;SDS011;63092;43.582;19.528;2024-03-25T06:47:30;22.25;;;11.82;;
73359;SDS011;63092;43.582;19.528;2024-03-25T06:49:56;22.75;;;11.95;;
73359;SDS011;63092;43.582;19.528;2024-03-25T06:52:21;19.73;;;10.32;;
73359;SDS011;63092;43.582;19.528;2024-03-25T06:54:47;18.27;;;9.20;;
73359;SDS011;63092;43.582;19.528;2024-03-25T06:57:13;20.95;;;10.45;;
73359;SDS011;63092;43.582;19.528;2024-03-25T06:59:38;18.98;;;9.52;;
73359;SDS011;63092;43.582;19.528;2024-03-25T07:02:04;17.50;;;8.63;;
73359;SDS011;63092;43.582;19.528;2024-03-25T07:04:30;14.30;;;6.82;;
73359;SDS011;63092;43.582;19.528;2024-03-25T07:06:57;11.85;;;6.22;;
73359;SDS011;63092;43.582;19.528;2024-03-25T07:09:23;10.85;;;6.45;;
73359;SDS011;63092;43.582;19.528;2024-03-25T07:11:49;10.38;;;6.63;;
73359;SDS011;63092;43.582;19.528;2024-03-25T07:14:15;15.98;;;9.95;;
73359;SDS011;63092;43.582;19.528;2024-03-25T07:16:41;18.15;;;7.47;;
73359;SDS011;63092;43.582;19.528;2024-03-25T07:19:06;17.85;;;8.35;;
73359;SDS011;63092;43.582;19.528;2024-03-25T07:21:32;20.75;;;9.35;;
73359;SDS011;63092;43.582;19.528;2024-03-25T07:23:58;15.32;;;8.63;;
73359;SDS011;63092;43.582;19.528;2024-03-25T07:26:23;18.17;;;9.75;;
73359;SDS011;63092;43.582;19.528;2024-03-25T07:28:50;15.13;;;7.63;;
73359;SDS011;63092;43.582;19.528;2024-03-25T07:31:15;26.50;;;12.02;;
73359;SDS011;63092;43.582;19.528;2024-03-25T07:33:41;12.65;;;7.53;;
73359;SDS011;63092;43.582;19.528;2024-03-25T07:36:07;15.65;;;8.27;;
73359;SDS011;63092;43.582;19.528;2024-03-25T07:38:32;22.90;;;11.10;;
73359;SDS011;63092;43.582;19.528;2024-03-25T07:41:02;16.30;;;9.27;;
73359;SDS011;63092;43.582;19.528;2024-03-25T07:43:31;13.82;;;7.95;;
73359;SDS011;63092;43.582;19.528;2024-03-25T07:45:57;13.25;;;8.15;;
73359;SDS011;63092;43.582;19.528;2024-03-25T07:48:22;17.65;;;8.90;;
73359;SDS011;63092;43.582;19.528;2024-03-25T07:50:48;15.18;;;8.88;;
73359;SDS011;63092;43.582;19.528;2024-03-25T07:53:14;12.13;;;7.07;;
73359;SDS011;63092;43.582;19.528;2024-03-25T07:55:39;13.13;;;7.95;;
73359;SDS011;63092;43.582;19.528;2024-03-25T07:58:05;22.65;;;13.88;;
73359;SDS011;63092;43.582;19.528;2024-03-25T08:00:31;14.43;;;9.15;;
73359;SDS011;63092;43.582;19.528;2024-03-25T08:02:57;17.50;;;10.80;;
73359;SDS011;63092;43.582;19.528;2024-03-25T08:05:22;41.75;;;25.63;;
73359;SDS011;63092;43.582;19.528;2024-03-25T08:07:48;19.80;;;12.18;;
73359;SDS011;63092;43.582;19.528;2024-03-25T08:10:14;13.60;;;7.93;;
73359;SDS011;63092;43.582;19.528;2024-03-25T08:12:39;12.35;;;8.07;;
73359;SDS011;63092;43.582;19.528;2024-03-25T08:15:05;10.90;;;6.82;;
73359;SDS011;63092;43.582;19.528;2024-03-25T08:17:33;15.43;;;9.70;;
73359;SDS011;63092;43.582;19.528;2024-03-25T08:19:58;12.48;;;7.90;;
73359;SDS011;63092;43.582;19.528;2024-03-25T08:22:24;10.88;;;6.70;;
73359;SDS011;63092;43.582;19.528;2024-03-25T08:24:50;7.95;;;5.20;;
73359;SDS011;63092;43.582;19.528;2024-03-25T08:27:15;10.18;;;6.15;;
73359;SDS011;63092;43.582;19.528;2024-03-25T08:29:41;6.85;;;4.20;;
73359;SDS011;63092;43.582;19.528;2024-03-25T08:32:07;10.48;;;5.88;;
73359;SDS011;63092;43.582;19.528;2024-03-25T08:34:33;12.43;;;6.07;;
73359;SDS011;63092;43.582;19.528;2024-03-25T08:36:59;22.10;;;11.30;;
73359;SDS011;63092;43.582;19.528;2024-03-25T08:39:24;19.13;;;9.65;;
73359;SDS011;63092;43.582;19.528;2024-03-25T08:41:50;24.13;;;11.15;;
73359;SDS011;63092;43.582;19.528;2024-03-25T08:44:16;16.77;;;8.65;;
73359;SDS011;63092;43.582;19.528;2024-03-25T08:46:41;18.55;;;8.73;;
73359;SDS011;63092;43.582;19.528;2024-03-25T08:49:07;16.65;;;8.55;;
73359;SDS011;63092;43.582;19.528;2024-03-25T08:51:33;33.63;;;17.42;;
73359;SDS011;63092;43.582;19.528;2024-03-25T08:54:00;11.50;;;7.38;;
73359;SDS011;63092;43.582;19.528;2024-03-25T08:56:29;14.38;;;8.23;;
73359;SDS011;63092;43.582;19.528;2024-03-25T08:58:55;10.55;;;6.30;;
73359;SDS011;63092;43.582;19.528;2024-03-25T09:01:22;30.77;;;12.55;;
73359;SDS011;63092;43.582;19.528;2024-03-25T09:03:49;14.32;;;7.35;;
73359;SDS011;63092;43.582;19.528;2024-03-25T09:06:15;22.75;;;9.93;;
73359;SDS011;63092;43.582;19.528;2024-03-25T09:08:41;17.58;;;7.38;;
73359;SDS011;63092;43.582;19.528;2024-03-25T09:11:25;14.10;;;7.50;;
73359;SDS011;63092;43.582;19.528;2024-03-25T09:13:52;16.38;;;9.30;;
73359;SDS011;63092;43.582;19.528;2024-03-25T09:16:18;30.27;;;16.17;;
73359;SDS011;63092;43.582;19.528;2024-03-25T09:18:44;13.35;;;8.30;;
73359;SDS011;63092;43.582;19.528;2024-03-25T09:21:10;10.25;;;6.25;;
73359;SDS011;63092;43.582;19.528;2024-03-25T09:23:36;24.42;;;19.80;;
73359;SDS011;63092;43.582;19.528;2024-03-25T09:26:02;9.27;;;5.97;;
73359;SDS011;63092;43.582;19.528;2024-03-25T09:28:28;10.20;;;5.93;;
73359;SDS011;63092;43.582;19.528;2024-03-25T09:30:53;10.25;;;6.75;;
73359;SDS011;63092;43.582;19.528;2024-03-25T09:33:19;11.93;;;7.35;;
73359;SDS011;63092;43.582;19.528;2024-03-25T09:35:45;8.30;;;5.30;;
73359;SDS011;63092;43.582;19.528;2024-03-25T09:38:10;9.48;;;5.43;;
73359;SDS011;63092;43.582;19.528;2024-03-25T09:40:36;10.35;;;7.00;;
73359;SDS011;63092;43.582;19.528;2024-03-25T09:43:33;9.57;;;6.32;;
73359;SDS011;63092;43.582;19.528;2024-03-25T09:45:58;8.77;;;5.78;;
73359;SDS011;63092;43.582;19.528;2024-03-25T09:48:25;10.10;;;5.30;;
73359;SDS011;63092;43.582;19.528;2024-03-25T09:50:52;12.30;;;7.68;;
73359;SDS011;63092;43.582;19.528;2024-03-25T09:53:18;9.65;;;5.57;;
73359;SDS011;63092;43.582;19.528;2024-03-25T09:55:48;8.55;;;5.68;;
73359;SDS011;63092;43.582;19.528;2024-03-25T09:58:14;9.15;;;5.57;;
73359;SDS011;63092;43.582;19.528;2024-03-25T10:00:42;9.20;;;5.60;;
73359;SDS011;63092;43.582;19.528;2024-03-25T10:03:08;8.57;;;4.93;;
73359;SDS011;63092;43.582;19.528;2024-03-25T10:05:34;8.18;;;4.80;;
73359;SDS011;63092;43.582;19.528;2024-03-25T10:08:00;9.35;;;5.10;;
73359;SDS011;63092;43.582;19.528;2024-03-25T10:10:26;14.50;;;9.55;;
73359;SDS011;63092;43.582;19.528;2024-03-25T10:12:54;8.40;;;5.43;;
73359;SDS011;63092;43.582;19.528;2024-03-25T10:15:20;15.57;;;6.23;;
73359;SDS011;63092;43.582;19.528;2024-03-25T10:17:48;9.13;;;6.05;;
73359;SDS011;63092;43.582;19.528;2024-03-25T10:20:15;13.80;;;6.70;;
73359;SDS011;63092;43.582;19.528;2024-03-25T10:22:44;11.18;;;6.57;;
73359;SDS011;63092;43.582;19.528;2024-03-25T10:25:25;19.63;;;9.95;;
73359;SDS011;63092;43.582;19.528;2024-03-25T10:27:53;16.35;;;10.13;;
73359;SDS011;63092;43.582;19.528;2024-03-25T10:30:19;8.05;;;5.38;;
73359;SDS011;63092;43.582;19.528;2024-03-25T10:32:45;7.70;;;4.60;;
73359;SDS011;63092;43.582;19.528;2024-03-25T10:35:11;7.95;;;5.10;;
73359;SDS011;63092;43.582;19.528;2024-03-25T10:37:38;9.00;;;5.70;;
73359;SDS011;63092;43.582;19.528;2024-03-25T10:40:04;8.77;;;5.72;;
73359;SDS011;63092;43.582;19.528;2024-03-25T10:42:32;7.97;;;5.20;;
73359;SDS011;63092;43.582;19.528;2024-03-25T10:45:00;10.55;;;6.03;;
73359;SDS011;63092;43.582;19.528;2024-03-25T10:47:27;7.82;;;4.70;;
73359;SDS011;63092;43.582;19.528;2024-03-25T10:49:56;9.57;;;5.15;;
73359;SDS011;63092;43.582;19.528;2024-03-25T10:52:26;8.15;;;4.97;;
73359;SDS011;63092;43.582;19.528;2024-03-25T10:54:54;11.32;;;5.47;;
73359;SDS011;63092;43.582;19.528;2024-03-25T10:57:21;9.75;;;5.03;;
73359;SDS011;63092;43.582;19.528;2024-03-25T10:59:47;8.27;;;5.18;;
73359;SDS011;63092;43.582;19.528;2024-03-25T11:02:14;7.90;;;4.68;;
73359;SDS011;63092;43.582;19.528;2024-03-25T11:04:42;10.13;;;6.30;;
73359;SDS011;63092;43.582;19.528;2024-03-25T11:07:10;10.20;;;6.10;;
73359;SDS011;63092;43.582;19.528;2024-03-25T11:09:40;10.55;;;5.43;;
73359;SDS011;63092;43.582;19.528;2024-03-25T11:12:07;8.90;;;5.50;;
73359;SDS011;63092;43.582;19.528;2024-03-25T11:14:36;8.82;;;5.60;;
73359;SDS011;63092;43.582;19.528;2024-03-25T11:17:02;12.77;;;7.95;;
73359;SDS011;63092;43.582;19.528;2024-03-25T11:19:38;13.15;;;7.35;;
73359;SDS011;63092;43.582;19.528;2024-03-25T11:22:08;11.32;;;6.53;;
73359;SDS011;63092;43.582;19.528;2024-03-25T11:24:35;8.07;;;5.35;;
73359;SDS011;63092;43.582;19.528;2024-03-25T11:27:02;11.82;;;7.05;;
73359;SDS011;63092;43.582;19.528;2024-03-25T11:29:32;10.75;;;5.88;;
73359;SDS011;63092;43.582;19.528;2024-03-25T11:32:07;8.23;;;5.47;;
73359;SDS011;63092;43.582;19.528;2024-03-25T11:34:35;8.13;;;5.78;;
73359;SDS011;63092;43.582;19.528;2024-03-25T11:37:01;8.00;;;5.10;;
73359;SDS011;63092;43.582;19.528;2024-03-25T11:39:27;10.43;;;5.93;;
73359;SDS011;63092;43.582;19.528;2024-03-25T11:41:53;11.15;;;7.38;;
73359;SDS011;63092;43.582;19.528;2024-03-25T11:44:19;13.13;;;7.05;;
73359;SDS011;63092;43.582;19.528;2024-03-25T11:46:47;9.90;;;5.75;;
73359;SDS011;63092;43.582;19.528;2024-03-25T11:49:15;8.40;;;4.93;;
73359;SDS011;63092;43.582;19.528;2024-03-25T11:51:44;9.32;;;6.50;;
73359;SDS011;63092;43.582;19.528;2024-03-25T11:54:11;8.40;;;5.22;;
73359;SDS011;63092;43.582;19.528;2024-03-25T11:56:38;7.55;;;4.82;;
73359;SDS011;63092;43.582;19.528;2024-03-25T11:59:04;8.90;;;4.88;;
73359;SDS011;63092;43.582;19.528;2024-03-25T12:01:32;12.60;;;6.43;;
73359;SDS011;63092;43.582;19.528;2024-03-25T12:04:16;7.13;;;4.13;;
73359;SDS011;63092;43.582;19.528;2024-03-25T12:06:43;7.50;;;3.92;;
73359;SDS011;63092;43.582;19.528;2024-03-25T12:09:10;6.88;;;3.60;;
73359;SDS011;63092;43.582;19.528;2024-03-25T12:11:55;6.60;;;4.07;;
73359;SDS011;63092;43.582;19.528;2024-03-25T12:14:22;8.68;;;5.35;;
73359;SDS011;63092;43.582;19.528;2024-03-25T12:16:48;9.15;;;4.97;;
73359;SDS011;63092;43.582;19.528;2024-03-25T12:19:15;7.40;;;4.25;;
73359;SDS011;63092;43.582;19.528;2024-03-25T12:21:43;9.65;;;5.60;;
73359;SDS011;63092;43.582;19.528;2024-03-25T12:24:09;7.15;;;4.30;;
73359;SDS011;63092;43.582;19.528;2024-03-25T12:26:36;8.35;;;4.47;;
73359;SDS011;63092;43.582;19.528;2024-03-25T12:29:02;5.20;;;3.15;;
73359;SDS011;63092;43.582;19.528;2024-03-25T12:31:29;4.45;;;2.85;;
73359;SDS011;63092;43.582;19.528;2024-03-25T12:33:56;4.40;;;2.60;;
73359;SDS011;63092;43.582;19.528;2024-03-25T12:36:21;5.85;;;3.00;;
73359;SDS011;63092;43.582;19.528;2024-03-25T12:38:56;6.38;;;3.20;;
73359;SDS011;63092;43.582;19.528;2024-03-25T12:41:22;7.22;;;3.33;;
73359;SDS011;63092;43.582;19.528;2024-03-25T12:43:49;5.00;;;2.90;;
73359;SDS011;63092;43.582;19.528;2024-03-25T12:46:16;5.15;;;2.58;;
73359;SDS011;63092;43.582;19.528;2024-03-25T12:48:42;5.45;;;2.22;;
73359;SDS011;63092;43.582;19.528;2024-03-25T12:51:14;4.75;;;3.22;;
73359;SDS011;63092;43.582;19.528;2024-03-25T12:53:40;3.85;;;2.13;;
73359;SDS011;63092;43.582;19.528;2024-03-25T12:56:07;4.57;;;2.22;;
73359;SDS011;63092;43.582;19.528;2024-03-25T12:58:33;4.72;;;2.50;;
73359;SDS011;63092;43.582;19.528;2024-03-25T13:00:59;5.47;;;2.65;;
73359;SDS011;63092;43.582;19.528;2024-03-25T13:03:24;9.93;;;6.00;;
73359;SDS011;63092;43.582;19.528;2024-03-25T13:05:50;7.05;;;3.88;;
73359;SDS011;63092;43.582;19.528;2024-03-25T13:08:16;7.70;;;4.28;;
73359;SDS011;63092;43.582;19.528;2024-03-25T13:10:42;5.25;;;2.80;;
73359;SDS011;63092;43.582;19.528;2024-03-25T13:13:08;5.10;;;2.70;;
73359;SDS011;63092;43.582;19.528;2024-03-25T13:15:34;3.88;;;2.17;;
73359;SDS011;63092;43.582;19.528;2024-03-25T13:18:00;4.13;;;2.63;;
73359;SDS011;63092;43.582;19.528;2024-03-25T13:20:27;4.13;;;2.05;;
73359;SDS011;63092;43.582;19.528;2024-03-25T13:22:53;4.10;;;2.05;;
73359;SDS011;63092;43.582;19.528;2024-03-25T13:25:24;3.50;;;1.90;;
73359;SDS011;63092;43.582;19.528;2024-03-25T13:27:52;14.35;;;6.85;;
73359;SDS011;63092;43.582;19.528;2024-03-25T13:30:18;9.07;;;3.72;;
73359;SDS011;63092;43.582;19.528;2024-03-25T13:32:44;20.15;;;6.80;;
73359;SDS011;63092;43.582;19.528;2024-03-25T13:35:10;25.00;;;9.18;;
73359;SDS011;63092;43.582;19.528;2024-03-25T13:37:35;7.82;;;4.40;;
73359;SDS011;63092;43.582;19.528;2024-03-25T13:40:01;4.00;;;2.22;;
73359;SDS011;63092;43.582;19.528;2024-03-25T13:42:27;4.15;;;2.05;;
73359;SDS011;63092;43.582;19.528;2024-03-25T13:44:53;10.73;;;5.32;;
73359;SDS011;63092;43.582;19.528;2024-03-25T13:47:18;10.05;;;4.53;;
73359;SDS011;63092;43.582;19.528;2024-03-25T13:49:44;9.73;;;4.40;;
73359;SDS011;63092;43.582;19.528;2024-03-25T13:52:10;9.07;;;4.90;;
73359;SDS011;63092;43.582;19.528;2024-03-25T13:54:36;7.60;;;4.20;;
73359;SDS011;63092;43.582;19.528;2024-03-25T13:57:01;21.10;;;9.63;;
73359;SDS011;63092;43.582;19.528;2024-03-25T13:59:28;14.95;;;7.65;;
73359;SDS011;63092;43.582;19.528;2024-03-25T14:01:54;9.95;;;5.22;;
73359;SDS011;63092;43.582;19.528;2024-03-25T14:04:20;14.48;;;8.40;;
73359;SDS011;63092;43.582;19.528;2024-03-25T14:06:46;14.55;;;7.40;;
73359;SDS011;63092;43.582;19.528;2024-03-25T14:09:23;12.13;;;6.20;;
73359;SDS011;63092;43.582;19.528;2024-03-25T14:11:52;12.90;;;6.78;;
73359;SDS011;63092;43.582;19.528;2024-03-25T14:14:18;12.60;;;7.03;;
73359;SDS011;63092;43.582;19.528;2024-03-25T14:16:44;13.18;;;7.68;;
73359;SDS011;63092;43.582;19.528;2024-03-25T14:19:10;13.43;;;7.00;;
73359;SDS011;63092;43.582;19.528;2024-03-25T14:21:35;7.47;;;3.45;;